Time;durP1;ratioP1;P1;durP2;ratioP2;P2;SDS_P1;SDS_P2;PMS_P1;PMS_P2;Temp;Humidity;BMP_temperature;BMP_pressure;BME280_temperature;BME280_humidity;BME280_pressure;Samples;Min_cycle;Max_cycle;Signal;HPM_P1;HPM_P2
2022/07/16 00:05:06;;;;;;;4.82;1.40;;;;;;;21.87;40.37;101001.72;9916544;29;20198;-86
2022/07/16 00:10:09;;;;;;;4.47;1.98;;;;;;;21.81;40.67;100996.63;9899643;30;20254;-87
2022/07/16 00:15:12;;;;;;;3.60;1.50;;;;;;;21.83;40.27;100992.22;9898323;30;20217;-86
2022/07/16 00:20:14;;;;;;;3.88;1.50;;;;;;;21.75;40.48;100998.09;9913410;29;20599;-86
2022/07/16 00:25:16;;;;;;;2.92;1.45;;;;;;;21.76;40.55;100997.75;9898192;30;20194;-86
2022/07/16 00:30:19;;;;;;;2.70;1.52;;;;;;;21.79;40.67;100991.31;9897790;29;20569;-86
2022/07/16 00:35:21;;;;;;;5.55;1.30;;;;;;;21.90;40.54;100997.31;9910007;30;20561;-86
2022/07/16 00:40:23;;;;;;;4.45;1.60;;;;;;;21.92;40.66;100984.38;9897725;30;20616;-85
2022/07/16 00:45:26;;;;;;;4.13;1.40;;;;;;;21.76;40.75;100985.53;9914630;29;20231;-86
2022/07/16 00:50:28;;;;;;;4.85;1.65;;;;;;;21.81;40.70;100993.78;9882655;30;20205;-86
2022/07/16 00:55:30;;;;;;;2.55;1.20;;;;;;;21.66;40.99;100992.56;9911751;30;20268;-85
2022/07/16 01:00:33;;;;;;;3.70;1.70;;;;;;;21.75;41.14;100998.09;9882066;30;20592;-84
2022/07/16 01:05:37;;;;;;;5.40;1.70;;;;;;;21.87;41.17;100993.19;9896682;30;20546;-82
2022/07/16 01:10:40;;;;;;;3.88;1.40;;;;;;;21.70;41.65;100993.47;9896549;30;20656;-82
2022/07/16 01:15:44;;;;;;;2.15;1.27;;;;;;;21.67;41.32;100994.19;9923622;29;20217;-82
2022/07/16 01:20:46;;;;;;;3.08;1.63;;;;;;;21.66;42.00;100992.56;9911029;30;20591;-82
2022/07/16 01:25:49;;;;;;;3.17;1.55;;;;;;;21.80;41.58;100987.25;9895548;30;20247;-82
2022/07/16 01:30:52;;;;;;;4.55;1.45;;;;;;;21.42;42.49;100986.91;9895589;29;20290;-82
2022/07/16 01:36:12;;;;;;;2.70;1.50;;;;;;;21.49;42.20;100981.47;9895149;30;20577;-83
2022/07/16 01:41:14;;;;;;;6.15;1.50;;;;;;;21.74;42.30;100977.34;9909372;30;20227;-82
2022/07/16 01:46:17;;;;;;;4.32;1.40;;;;;;;21.78;41.67;100978.28;9895132;30;20488;-82
2022/07/16 01:51:20;;;;;;;3.77;1.50;;;;;;;21.78;41.58;100974.59;9910097;30;20201;-81
2022/07/16 01:56:23;;;;;;;4.50;1.80;;;;;;;21.75;41.38;100981.00;9907632;29;20236;-84
2022/07/16 02:01:26;;;;;;;5.28;1.88;;;;;;;21.64;41.58;100975.00;9880024;30;20205;-82
2022/07/16 02:06:32;;;;;;;5.28;1.67;;;;;;;21.68;41.09;100972.25;9895074;30;20595;-82
2022/07/16 02:11:34;;;;;;;3.58;1.42;;;;;;;21.64;41.47;100977.03;9909264;30;20198;-83
2022/07/16 02:16:36;;;;;;;3.35;1.38;;;;;;;21.85;41.30;100975.63;9910174;30;20274;-83
2022/07/16 02:21:39;;;;;;;4.78;1.40;;;;;;;21.68;41.44;100978.78;9910066;30;20511;-83
2022/07/16 02:26:41;;;;;;;4.13;1.88;;;;;;;21.38;42.06;100968.94;9906964;29;20652;-82
2022/07/16 02:31:43;;;;;;;5.95;1.58;;;;;;;21.52;41.48;100972.22;9912226;29;20784;-82
2022/07/16 02:36:46;;;;;;;4.63;1.33;;;;;;;21.66;40.99;100978.34;9909114;29;20221;-83
2022/07/16 02:41:48;;;;;;;1.92;1.20;;;;;;;21.53;41.45;100966.16;9881345;30;20673;-82
2022/07/16 02:46:51;;;;;;;6.50;1.45;;;;;;;21.75;41.05;100972.47;9895094;30;20492;-82
2022/07/16 02:51:53;;;;;;;2.53;1.25;;;;;;;21.28;42.08;100967.41;9908274;29;20269;-82
2022/07/16 02:56:55;;;;;;;2.13;1.33;;;;;;;21.47;41.90;100966.75;9915305;30;20651;-83
2022/07/16 03:01:58;;;;;;;4.35;1.52;;;;;;;21.30;42.10;100967.03;9916109;30;20206;-83
2022/07/16 03:07:00;;;;;;;4.03;1.67;;;;;;;21.40;42.13;100963.72;9919433;29;20206;-85
2022/07/16 03:12:03;;;;;;;3.30;1.40;;;;;;;21.41;41.70;100966.19;9928160;29;20592;-83
2022/07/16 03:17:05;;;;;;;2.95;1.38;;;;;;;21.25;42.46;100958.78;9913591;30;20217;-86
2022/07/16 03:22:08;;;;;;;4.95;1.40;;;;;;;21.15;42.36;100971.44;9902386;29;20630;-83
2022/07/16 03:27:11;;;;;;;4.78;1.58;;;;;;;21.51;41.15;100967.72;9885519;30;20197;-83
2022/07/16 03:32:13;;;;;;;3.37;1.73;;;;;;;21.70;41.14;100962.16;9914538;30;20233;-86
2022/07/16 03:37:16;;;;;;;2.72;1.23;;;;;;;21.32;41.79;100958.97;9884988;30;20658;-85
2022/07/16 03:42:18;;;;;;;3.88;1.45;;;;;;;21.20;41.75;100960.63;9899584;30;20660;-84
2022/07/16 03:47:20;;;;;;;3.78;1.27;;;;;;;21.42;41.57;100958.47;9884921;30;20194;-84
2022/07/16 03:52:23;;;;;;;6.63;1.67;;;;;;;20.72;43.06;100963.56;9899191;30;20206;-84
2022/07/16 03:57:27;;;;;;;8.47;2.00;;;;;;;21.08;42.17;100969.19;9899198;30;20837;-84
2022/07/16 04:02:29;;;;;;;3.13;1.40;;;;;;;20.83;42.89;100962.72;9884276;30;20205;-85
2022/07/16 04:07:32;;;;;;;5.13;1.45;;;;;;;21.43;41.79;100962.97;9913522;29;20193;-86
2022/07/16 04:12:34;;;;;;;2.22;1.35;;;;;;;21.35;41.43;100963.97;9898572;30;20197;-85
2022/07/16 04:17:37;;;;;;;4.30;1.50;;;;;;;21.01;42.63;100986.06;9913352;30;20217;-86
2022/07/16 04:22:39;;;;;;;2.40;1.17;;;;;;;21.19;42.33;100990.28;9898492;30;20272;-84
2022/07/16 04:27:43;;;;;;;3.97;1.92;;;;;;;21.14;42.46;100981.16;9925362;29;20197;-85
2022/07/16 04:32:45;;;;;;;2.25;1.10;;;;;;;21.19;42.29;100995.13;9901164;29;20278;-83
2022/07/16 04:37:48;;;;;;;2.90;1.27;;;;;;;21.31;42.78;100994.31;9915292;29;20612;-83
2022/07/16 04:42:50;;;;;;;3.85;1.20;;;;;;;21.39;42.03;100990.50;9912354;29;20512;-83
2022/07/16 04:47:52;;;;;;;3.42;1.55;;;;;;;21.42;41.80;100993.44;9900205;29;20508;-83
2022/07/16 04:52:55;;;;;;;5.28;1.52;;;;;;;21.63;41.96;100996.13;9896902;30;20562;-82
2022/07/16 04:57:57;;;;;;;2.13;1.35;;;;;;;21.56;41.65;101001.59;9895888;29;20225;-82
2022/07/16 05:03:00;;;;;;;3.85;1.00;;;;;;;21.61;41.55;101000.50;9913688;29;20270;-82
2022/07/16 05:08:06;;;;;;;2.95;1.33;;;;;;;21.58;41.78;101005.72;9879444;29;20689;-82
2022/07/16 05:13:10;;;;;;;1.38;1.20;;;;;;;21.64;41.67;101003.47;9915394;29;20674;-83
2022/07/16 05:18:13;;;;;;;3.40;1.25;;;;;;;21.83;41.75;101003.63;9894864;30;20213;-82
2022/07/16 05:23:15;;;;;;;2.50;1.33;;;;;;;22.00;41.98;101013.09;9910108;29;20201;-86
2022/07/16 05:28:17;;;;;;;2.05;1.33;;;;;;;22.10;41.40;101006.84;9895359;30;20242;-86
2022/07/16 05:33:19;;;;;;;1.77;1.33;;;;;;;22.15;41.44;101010.28;9894753;30;20290;-84
2022/07/16 05:38:22;;;;;;;1.75;1.60;;;;;;;22.24;41.32;101018.66;9893653;29;20314;-83
2022/07/16 05:43:24;;;;;;;3.17;1.65;;;;;;;22.02;42.79;101022.09;9881772;29;20205;-83
2022/07/16 05:48:27;;;;;;;4.95;2.03;;;;;;;21.92;43.09;101024.25;9879151;29;20205;-84
2022/07/16 05:53:29;;;;;;;4.43;2.15;;;;;;;22.38;43.10;101032.47;9879578;30;20233;-85
2022/07/16 05:58:32;;;;;;;4.80;2.50;;;;;;;21.88;43.43;101039.56;9908270;30;20255;-85
2022/07/16 06:03:36;;;;;;;3.85;2.88;;;;;;;20.21;49.95;101051.03;9912824;29;20197;-85
2022/07/16 06:08:39;;;;;;;4.13;3.53;;;;;;;20.04;51.03;101062.56;9898860;29;20201;-83
2022/07/16 06:13:41;;;;;;;4.03;2.67;;;;;;;21.15;49.11;101053.91;9912743;29;20229;-82
2022/07/16 06:18:44;;;;;;;9.65;3.38;;;;;;;20.92;49.78;101058.41;9911590;29;20378;-82
2022/07/16 06:23:46;;;;;;;5.53;2.90;;;;;;;21.09;49.29;101061.88;9911158;29;20201;-83
2022/07/16 06:28:49;;;;;;;6.15;2.90;;;;;;;21.09;48.91;101067.56;9907079;29;20339;-85
2022/07/16 06:33:51;;;;;;;3.88;1.85;;;;;;;20.76;49.84;101081.00;9895840;29;20520;-86
2022/07/16 06:38:54;;;;;;;3.53;2.20;;;;;;;21.17;48.58;101075.13;9910036;29;20256;-86
2022/07/16 06:43:57;;;;;;;4.13;1.80;;;;;;;21.12;48.52;101098.13;9910108;29;20476;-84
2022/07/16 06:48:59;;;;;;;2.13;1.75;;;;;;;21.68;47.99;101092.63;9907128;29;20233;-86
2022/07/16 06:54:02;;;;;;;2.72;1.70;;;;;;;22.10;45.50;101086.59;9863956;29;20282;-86
2022/07/16 06:59:04;;;;;;;2.78;1.50;;;;;;;20.74;49.48;101104.13;9893198;29;20252;-84
2022/07/16 07:04:07;;;;;;;2.63;1.70;;;;;;;21.76;47.10;101094.53;9910837;29;20202;-85
2022/07/16 07:09:09;;;;;;;1.63;1.20;;;;;;;20.87;49.74;101116.34;9888371;29;20228;-85
2022/07/16 07:14:12;;;;;;;3.47;0.95;;;;;;;21.72;47.03;101116.34;9918062;29;20213;-86
2022/07/16 07:19:15;;;;;;;0.75;0.68;;;;;;;22.04;45.28;101119.41;9890818;29;20265;-87
2022/07/16 07:24:17;;;;;;;1.35;0.60;;;;;;;21.04;47.94;101130.34;9890466;30;20251;-85
2022/07/16 07:29:39;;;;;;;1.98;0.55;;;;;;;21.23;47.37;101137.50;9871145;29;1063506;-85
2022/07/16 07:34:43;;;;;;;2.55;0.40;;;;;;;21.54;44.82;101126.31;9894188;29;20274;-86
2022/07/16 07:39:45;;;;;;;2.90;0.45;;;;;;;22.07;43.30;101128.03;9908322;29;20538;-86
2022/07/16 07:44:47;;;;;;;1.58;0.43;;;;;;;21.46;43.64;101130.16;9912555;30;20189;-85
2022/07/16 07:49:50;;;;;;;1.90;0.38;;;;;;;22.26;40.58;101148.16;9913077;30;20201;-87
2022/07/16 07:54:53;;;;;;;0.77;0.30;;;;;;;22.47;40.83;101135.72;9914163;29;20282;-87
2022/07/16 07:59:55;;;;;;;1.20;0.32;;;;;;;22.33;40.01;101136.13;9917741;30;20206;-85
2022/07/16 08:04:58;;;;;;;0.70;0.50;;;;;;;22.79;39.89;101136.66;9913038;30;20251;-86
2022/07/16 08:10:02;;;;;;;1.40;0.40;;;;;;;23.00;39.97;101154.31;9911900;29;20262;-85
2022/07/16 08:15:04;;;;;;;3.72;0.30;;;;;;;21.81;41.70;101150.38;9924019;29;20572;-86
2022/07/16 08:20:13;;;;;;;0.75;0.30;;;;;;;22.90;39.59;101144.28;9896644;29;20282;-86
2022/07/16 08:30:36;;;;;;;1.73;0.60;;;;;;;22.19;40.02;101158.50;9914838;29;20658;-85
2022/07/16 08:35:40;;;;;;;0.90;0.40;;;;;;;23.66;38.13;101157.28;9912965;29;20205;-86
2022/07/16 08:40:43;;;;;;;2.90;0.57;;;;;;;23.82;36.14;101151.53;9882213;30;20554;-85
2022/07/16 08:45:46;;;;;;;0.98;0.52;;;;;;;23.37;37.34;101154.91;9912267;30;20588;-85
2022/07/16 08:50:49;;;;;;;0.40;0.40;;;;;;;22.81;37.89;101165.63;9910457;29;20205;-85
2022/07/16 08:55:52;;;;;;;0.47;0.30;;;;;;;23.10;37.29;101176.59;9939611;29;20220;-84
2022/07/16 09:00:54;;;;;;;2.45;0.50;;;;;;;23.05;36.25;101171.19;9914993;29;20259;-83
2022/07/16 09:05:57;;;;;;;0.98;0.40;;;;;;;23.47;35.74;101174.34;9896429;30;20202;-84
2022/07/16 09:11:19;;;;;;;2.78;0.63;;;;;;;23.46;36.36;101171.88;9933532;29;20504;-85
2022/07/16 09:16:53;;;;;;;3.28;1.10;;;;;;;22.28;38.70;101190.53;9892651;29;20223;-85
2022/07/16 09:22:14;;;;;;;1.30;0.50;;;;;;;22.68;37.13;101184.00;9887400;30;20217;-85
2022/07/16 09:27:19;;;;;;;3.20;0.68;;;;;;;23.37;35.56;101202.59;9908994;29;20197;-86
2022/07/16 09:32:36;;;;;;;1.27;0.50;;;;;;;23.22;35.22;101190.81;9883847;29;20583;-85
2022/07/16 09:37:48;;;;;;;2.33;0.70;;;;;;;22.88;36.96;101208.59;9909157;29;20217;-84
2022/07/16 09:42:51;;;;;;;3.92;0.40;;;;;;;22.78;36.73;101204.25;9907111;29;20217;-85
2022/07/16 09:47:53;;;;;;;2.65;0.45;;;;;;;23.36;35.48;101213.19;9883516;29;20262;-85
2022/07/16 09:53:15;;;;;;;1.65;0.30;;;;;;;23.55;32.86;101218.16;9905285;29;20293;-85
2022/07/16 09:58:17;;;;;;;0.65;0.38;;;;;;;23.53;32.79;101218.53;9905683;29;20253;-86
2022/07/16 10:03:20;;;;;;;1.00;0.40;;;;;;;24.93;32.05;101217.66;9907636;29;20227;-86
2022/07/16 10:08:24;;;;;;;3.78;0.65;;;;;;;23.00;34.44;101228.50;9907997;30;20246;-85
2022/07/16 10:13:28;;;;;;;0.88;0.30;;;;;;;22.44;35.11;101234.19;9909028;30;20262;-86
2022/07/16 10:18:43;;;;;;;4.60;0.50;;;;;;;22.84;33.90;101241.88;9881124;30;20241;-85
2022/07/16 10:24:04;;;;;;;4.60;1.67;;;;;;;23.47;33.41;101230.63;9906938;29;20188;-84
2022/07/16 10:29:07;;;;;;;1.35;0.50;;;;;;;22.54;34.69;101242.22;9879275;30;20223;-85
2022/07/16 10:34:12;;;;;;;3.25;0.70;;;;;;;23.90;32.13;101238.22;9907615;29;20225;-84
2022/07/16 10:39:15;;;;;;;0.82;0.20;;;;;;;23.72;32.01;101237.78;9909142;29;20619;-85
2022/07/16 10:44:19;;;;;;;3.20;0.43;;;;;;;24.42;31.38;101249.25;9889401;29;20205;-84
2022/07/16 10:49:23;;;;;;;2.67;0.40;;;;;;;24.93;30.62;101249.13;9873437;29;20603;-84
2022/07/16 10:54:35;;;;;;;1.13;0.63;;;;;;;24.85;30.66;101259.63;9901512;29;20230;-84
2022/07/16 10:59:40;;;;;;;1.33;0.52;;;;;;;23.56;32.77;101272.06;9900568;29;20240;-82
2022/07/16 11:04:45;;;;;;;1.23;0.50;;;;;;;24.00;32.71;101272.78;9901927;30;20798;-82
2022/07/16 11:09:50;;;;;;;3.17;0.63;;;;;;;24.67;30.95;101273.53;9902519;29;20233;-81
2022/07/16 11:14:55;;;;;;;1.67;0.50;;;;;;;24.70;31.57;101271.97;9890946;29;20233;-82
2022/07/16 11:20:00;;;;;;;2.03;0.38;;;;;;;24.49;30.70;101268.63;9927611;29;20245;-83
2022/07/16 11:25:05;;;;;;;4.00;0.90;;;;;;;24.29;32.83;101284.91;9899222;29;20229;-83
2022/07/16 11:30:12;;;;;;;1.88;0.40;;;;;;;24.02;32.79;101293.25;9914062;29;20655;-86
2022/07/16 11:35:15;;;;;;;1.55;0.40;;;;;;;24.18;32.69;101284.66;9898450;30;20262;-86
2022/07/16 11:40:19;;;;;;;1.60;0.50;;;;;;;23.10;33.36;101296.41;9911494;29;20249;-84
2022/07/16 11:45:21;;;;;;;2.55;0.50;;;;;;;24.40;31.37;101301.09;9901671;29;20189;-84
2022/07/16 11:50:27;;;;;;;4.72;0.80;;;;;;;24.14;31.17;101300.03;9894015;29;20270;-84
2022/07/16 11:55:30;;;;;;;2.78;0.47;;;;;;;25.34;29.98;101299.88;9912676;29;20324;-83
2022/07/16 12:00:47;;;;;;;1.85;0.40;;;;;;;25.56;30.75;101286.81;9895761;29;20228;-83
2022/07/16 12:06:00;;;;;;;1.33;0.40;;;;;;;25.41;29.66;101294.31;9924168;29;20201;-84
2022/07/16 12:11:05;;;;;;;2.05;0.60;;;;;;;25.20;28.26;101298.78;9903398;29;20294;-82
2022/07/16 12:16:09;;;;;;;4.15;0.57;;;;;;;26.02;27.60;101287.63;9893210;29;20238;-84
2022/07/16 12:21:28;;;;;;;2.22;0.55;;;;;;;24.50;29.01;101305.41;9909913;29;20281;-82
2022/07/16 12:26:36;;;;;;;1.27;0.30;;;;;;;23.86;29.06;101312.41;9907935;29;20193;-84
2022/07/16 12:31:39;;;;;;;1.83;0.40;;;;;;;25.39;27.99;101293.88;9904818;30;20256;-81
2022/07/16 12:36:42;;;;;;;4.03;0.50;;;;;;;24.94;28.54;101299.44;9910688;30;20249;-83
2022/07/16 12:41:48;;;;;;;3.20;0.43;;;;;;;26.29;27.82;101301.97;9912235;29;20254;-85
2022/07/16 12:46:51;;;;;;;2.35;0.57;;;;;;;25.70;26.55;101297.66;9894377;29;20869;-83
2022/07/16 12:52:02;;;;;;;1.67;0.50;;;;;;;26.26;27.96;101297.00;9912371;29;20239;-85
2022/07/16 13:02:25;;;;;;;2.72;0.30;;;;;;;26.92;27.19;101286.91;9901957;29;20233;-82
2022/07/16 13:07:28;;;;;;;2.00;0.65;;;;;;;25.13;28.29;101302.31;9918673;29;20353;-83
2022/07/16 13:12:30;;;;;;;2.90;0.28;;;;;;;26.29;27.00;101308.53;9887350;29;20229;-84
2022/07/16 13:17:32;;;;;;;3.63;0.60;;;;;;;27.00;25.65;101303.84;9890214;29;20306;-83
2022/07/16 13:22:35;;;;;;;1.52;0.35;;;;;;;26.38;26.73;101300.50;9898906;29;20341;-84
2022/07/16 13:27:38;;;;;;;3.17;0.73;;;;;;;26.69;27.23;101305.06;9913321;29;20254;-83
2022/07/16 13:32:44;;;;;;;1.67;0.40;;;;;;;26.64;25.97;101308.25;9908569;29;20666;-83
2022/07/16 13:37:47;;;;;;;2.45;0.45;;;;;;;25.94;27.00;101319.44;9904080;29;20632;-81
2022/07/16 13:42:49;;;;;;;1.45;0.30;;;;;;;26.75;25.84;101314.13;9896139;29;20834;-82
2022/07/16 13:47:53;;;;;;;3.45;0.47;;;;;;;25.44;26.15;101316.44;9901192;29;20205;-82
2022/07/16 13:52:56;;;;;;;2.83;0.50;;;;;;;25.75;27.52;101312.53;9886085;29;20297;-82
2022/07/16 13:58:14;;;;;;;2.40;0.45;;;;;;;25.42;27.46;101316.00;9879557;29;20309;-81
2022/07/16 14:03:17;;;;;;;2.70;0.57;;;;;;;25.07;28.55;101321.81;9905051;29;20687;-81
2022/07/16 14:08:22;;;;;;;3.63;0.50;;;;;;;26.65;26.23;101304.19;9891644;29;20232;-82
2022/07/16 14:13:25;;;;;;;1.90;0.50;;;;;;;24.20;30.44;101327.16;9910747;29;20626;-85
2022/07/16 14:18:27;;;;;;;2.00;0.28;;;;;;;26.40;25.81;101317.34;9877134;29;20314;-81
2022/07/16 14:23:30;;;;;;;2.97;0.50;;;;;;;24.58;28.45;101333.00;9865640;29;20240;-81
2022/07/16 14:28:33;;;;;;;2.67;0.40;;;;;;;25.43;27.92;101323.38;9894797;29;20814;-82
2022/07/16 14:33:36;;;;;;;1.63;0.40;;;;;;;25.23;27.93;101324.63;9869358;29;20292;-81
2022/07/16 14:38:38;;;;;;;5.18;0.63;;;;;;;26.82;25.76;101317.94;9874407;29;20307;-83
2022/07/16 14:43:41;;;;;;;4.68;0.52;;;;;;;25.92;27.57;101334.16;9901965;29;20233;-84
2022/07/16 14:48:43;;;;;;;1.52;0.40;;;;;;;25.20;28.70;101327.41;9875535;29;20365;-82
2022/07/16 14:53:46;;;;;;;5.03;0.60;;;;;;;25.66;27.58;101334.03;9893839;29;20352;-80
2022/07/16 14:58:48;;;;;;;5.68;0.60;;;;;;;25.41;27.44;101337.25;9887623;29;20264;-81
2022/07/16 15:03:51;;;;;;;1.48;0.68;;;;;;;25.59;26.87;101331.84;9862482;29;20583;-81
2022/07/16 15:08:54;;;;;;;3.15;0.47;;;;;;;25.78;27.80;101333.84;9884744;29;20290;-82
2022/07/16 15:13:56;;;;;;;2.45;0.50;;;;;;;24.89;28.06;101346.38;9903271;29;20290;-82
2022/07/16 15:18:59;;;;;;;2.78;0.50;;;;;;;26.40;26.69;101323.06;9890270;29;20291;-83
2022/07/16 15:24:01;;;;;;;1.60;0.50;;;;;;;25.21;27.90;101326.19;9901885;29;20293;-80
2022/07/16 15:29:04;;;;;;;1.88;0.38;;;;;;;25.32;27.83;101316.63;9894801;29;20225;-81
2022/07/16 15:34:07;;;;;;;3.22;0.57;;;;;;;25.44;27.04;101313.56;9878134;29;20316;-81
2022/07/16 15:39:10;;;;;;;2.90;0.50;;;;;;;26.50;26.53;101319.53;9890578;29;20311;-80
2022/07/16 15:44:12;;;;;;;3.22;0.50;;;;;;;25.89;27.24;101328.34;9913594;29;20244;-81
2022/07/16 15:49:14;;;;;;;3.47;0.43;;;;;;;25.34;27.12;101328.53;9874774;29;20228;-80
2022/07/16 15:54:17;;;;;;;1.33;0.30;;;;;;;26.21;26.40;101324.00;9892864;29;20650;-79
2022/07/16 15:59:20;;;;;;;1.80;0.50;;;;;;;25.61;26.78;101328.63;9891451;29;20362;-79
2022/07/16 16:04:23;;;;;;;4.72;0.60;;;;;;;25.40;27.34;101321.28;9878149;29;20300;-79
2022/07/16 16:09:26;;;;;;;3.40;0.30;;;;;;;26.85;25.79;101311.44;9882215;29;20241;-79
2022/07/16 16:14:28;;;;;;;2.72;0.50;;;;;;;26.97;25.50;101312.44;9893746;29;20609;-80
2022/07/16 16:19:31;;;;;;;1.52;0.30;;;;;;;26.11;26.30;101318.88;9893129;29;20620;-80
2022/07/16 16:24:33;;;;;;;2.97;0.68;;;;;;;26.65;25.83;101321.38;9899566;29;20266;-78
2022/07/16 16:29:35;;;;;;;2.42;0.60;;;;;;;25.35;26.53;101330.19;9894032;29;20771;-79
2022/07/16 16:34:38;;;;;;;4.68;0.22;;;;;;;26.99;24.40;101335.84;9902806;29;20686;-79
2022/07/16 16:39:40;;;;;;;3.60;0.60;;;;;;;26.94;24.24;101327.53;9909863;29;20278;-79
2022/07/16 16:44:42;;;;;;;3.92;0.45;;;;;;;24.93;27.03;101343.56;9902267;29;20230;-78
2022/07/16 16:49:44;;;;;;;3.88;0.60;;;;;;;25.01;27.94;101339.66;9904121;29;20589;-78
2022/07/16 16:54:47;;;;;;;3.45;0.50;;;;;;;24.90;27.68;101341.47;9889661;29;20254;-78
2022/07/16 16:59:49;;;;;;;1.73;0.75;;;;;;;26.21;25.61;101335.47;9909087;29;20707;-78
2022/07/16 17:04:52;;;;;;;0.50;0.30;;;;;;;25.89;25.63;101340.63;9924606;29;20228;-78
2022/07/16 17:09:57;;;;;;;4.85;0.50;;;;;;;25.44;26.54;101347.94;9925500;29;20266;-78
2022/07/16 17:15:00;;;;;;;1.42;0.25;;;;;;;26.06;25.52;101342.16;9920137;29;20598;-78
2022/07/16 17:20:06;;;;;;;2.05;0.40;;;;;;;26.17;25.69;101350.94;9912152;29;20777;-78
2022/07/16 17:25:09;;;;;;;3.05;0.40;;;;;;;25.80;26.57;101348.66;9927127;29;20313;-79
2022/07/16 17:30:12;;;;;;;2.28;0.30;;;;;;;25.03;26.95;101357.31;9886556;29;20260;-78
2022/07/16 17:35:14;;;;;;;1.58;0.30;;;;;;;25.43;26.51;101352.00;9912552;29;20234;-78
2022/07/16 17:40:18;;;;;;;1.45;0.40;;;;;;;26.13;26.35;101356.59;9897591;29;20278;-78
2022/07/16 17:45:21;;;;;;;2.35;0.40;;;;;;;26.51;24.81;101355.59;9900088;29;20294;-78
2022/07/16 17:50:25;;;;;;;1.70;0.40;;;;;;;26.19;25.14;101362.84;9898251;29;20226;-78
2022/07/16 17:55:28;;;;;;;3.45;0.50;;;;;;;26.43;25.13;101354.69;9912292;29;20233;-79
2022/07/16 18:00:30;;;;;;;2.92;0.50;;;;;;;26.29;24.88;101350.72;9871543;29;20278;-78
2022/07/16 18:05:35;;;;;;;1.90;0.43;;;;;;;26.39;26.29;101359.53;9903755;29;20220;-78
2022/07/16 18:10:37;;;;;;;4.35;0.60;;;;;;;25.82;26.08;101351.97;9908971;29;20250;-78
2022/07/16 18:15:39;;;;;;;2.83;0.45;;;;;;;26.00;25.61;101364.56;9908365;29;20270;-79
2022/07/16 18:20:42;;;;;;;3.17;0.60;;;;;;;25.68;26.48;101363.16;9892955;30;20253;-78
2022/07/16 18:25:44;;;;;;;2.60;0.65;;;;;;;25.68;26.08;101361.09;9906437;29;20205;-79
2022/07/16 18:30:47;;;;;;;2.75;0.40;;;;;;;25.70;26.09;101367.25;9879894;29;20318;-78
2022/07/16 18:35:49;;;;;;;2.92;0.50;;;;;;;25.17;27.64;101373.94;9878183;29;20287;-78
2022/07/16 18:40:52;;;;;;;3.97;0.90;;;;;;;25.65;26.88;101381.09;9880683;29;20274;-78
2022/07/16 18:45:55;;;;;;;3.20;0.90;;;;;;;25.90;26.53;101388.16;9915646;29;20540;-80
2022/07/16 18:50:57;;;;;;;3.70;0.70;;;;;;;25.78;27.05;101392.03;9881760;29;20238;-79
2022/07/16 18:56:00;;;;;;;3.33;0.60;;;;;;;23.54;29.52;101410.66;9877274;29;20241;-79
2022/07/16 19:01:02;;;;;;;3.92;0.60;;;;;;;23.35;30.30;101417.06;9895897;29;20252;-79
2022/07/16 19:06:05;;;;;;;2.28;0.40;;;;;;;23.45;30.34;101421.41;9929207;29;20284;-79
2022/07/16 19:11:07;;;;;;;5.45;1.38;;;;;;;24.67;28.52;101438.59;9906208;29;20234;-80
2022/07/16 19:16:10;;;;;;;2.78;1.50;;;;;;;25.20;28.58;101430.47;9898603;29;20245;-79
2022/07/16 19:21:12;;;;;;;2.40;0.77;;;;;;;25.01;28.04;101436.97;9914832;29;20269;-80
2022/07/16 19:26:17;;;;;;;3.47;0.40;;;;;;;25.20;27.76;101439.88;9911793;29;20244;-80
2022/07/16 19:31:20;;;;;;;1.75;0.68;;;;;;;23.45;30.75;101442.22;9896318;29;20261;-80
2022/07/16 19:36:23;;;;;;;6.95;1.75;;;;;;;25.18;29.23;101442.28;9894324;29;20292;-80
2022/07/16 19:41:27;;;;;;;4.93;1.40;;;;;;;24.97;28.83;101454.06;9914710;29;20252;-84
2022/07/16 19:46:29;;;;;;;2.72;1.10;;;;;;;25.03;28.66;101457.47;9892501;29;20237;-82
2022/07/16 19:51:33;;;;;;;3.13;0.80;;;;;;;25.03;28.87;101457.47;9896124;29;20228;-84
2022/07/16 20:01:56;;;;;;;3.78;1.17;;;;;;;24.30;30.36;101464.63;9875049;29;20257;-84
2022/07/16 20:06:59;;;;;;;3.17;1.27;;;;;;;24.23;30.17;101455.03;9874262;29;20274;-85
2022/07/16 20:12:03;;;;;;;1.13;0.90;;;;;;;24.11;30.96;101472.28;9886715;29;20262;-84
2022/07/16 20:17:05;;;;;;;6.18;2.10;;;;;;;24.11;30.85;101473.09;9903564;29;20558;-85
2022/07/16 20:22:08;;;;;;;2.95;1.33;;;;;;;24.04;31.09;101479.44;9920631;29;20321;-82
2022/07/16 20:27:11;;;;;;;5.53;1.30;;;;;;;23.74;31.79;101495.28;9926413;29;20209;-83
2022/07/16 20:32:13;;;;;;;3.80;0.95;;;;;;;23.69;32.10;101484.13;9901797;29;20271;-84
2022/07/16 20:37:18;;;;;;;3.25;1.13;;;;;;;24.01;31.13;101490.75;9901649;29;20680;-85
2022/07/16 20:42:22;;;;;;;3.45;1.05;;;;;;;24.04;31.68;101493.72;9894320;29;20253;-83
2022/07/16 20:47:25;;;;;;;2.53;0.70;;;;;;;23.94;32.22;101490.56;9886582;29;20279;-84
2022/07/16 20:52:28;;;;;;;3.88;0.90;;;;;;;23.84;32.59;101496.78;9875606;29;20229;-82
2022/07/16 20:57:37;;;;;;;4.85;1.08;;;;;;;23.59;33.41;101504.63;9888920;30;20206;-82
2022/07/16 21:02:41;;;;;;;4.50;1.02;;;;;;;23.64;33.34;101515.78;9891566;30;20299;-81
2022/07/16 21:07:44;;;;;;;2.92;0.80;;;;;;;23.30;34.64;101518.03;9900253;30;20281;-83
2022/07/16 21:12:46;;;;;;;3.72;0.85;;;;;;;23.22;35.08;101516.13;9886202;29;20258;-82
2022/07/16 21:17:49;;;;;;;3.23;0.80;;;;;;;23.07;35.09;101522.56;9903451;30;20198;-84
2022/07/16 21:22:51;;;;;;;3.70;0.77;;;;;;;23.06;34.73;101523.75;9897466;30;20702;-82
2022/07/16 21:27:54;;;;;;;4.30;0.82;;;;;;;22.30;35.99;101524.41;9882834;29;20302;-83
2022/07/16 21:32:56;;;;;;;3.88;1.10;;;;;;;22.63;35.95;101521.50;9919659;29;20244;-83
2022/07/16 21:38:00;;;;;;;2.83;1.30;;;;;;;22.68;35.62;101518.41;9897595;30;20553;-82
2022/07/16 21:43:04;;;;;;;3.35;1.10;;;;;;;22.62;35.25;101519.81;9871930;30;20236;-82
2022/07/16 21:48:07;;;;;;;2.78;1.20;;;;;;;22.62;35.76;101520.66;9897108;30;20282;-83
2022/07/16 21:53:09;;;;;;;3.63;1.02;;;;;;;22.67;35.74;101525.31;9903093;30;20301;-82
2022/07/16 21:58:11;;;;;;;6.75;1.20;;;;;;;22.53;36.37;101531.31;9884000;29;20769;-82
2022/07/16 22:03:13;;;;;;;2.53;0.85;;;;;;;22.42;36.62;101540.69;9898842;29;20236;-82
2022/07/16 22:08:16;;;;;;;3.17;0.90;;;;;;;22.23;38.17;101541.22;9896843;30;20233;-83
2022/07/16 22:13:18;;;;;;;3.83;1.05;;;;;;;21.74;38.72;101549.56;9879872;30;20271;-82
2022/07/16 22:18:21;;;;;;;3.63;1.27;;;;;;;21.98;37.82;101556.56;9891108;29;20378;-84
2022/07/16 22:23:26;;;;;;;1.83;0.95;;;;;;;21.49;38.86;101564.84;9896120;30;20240;-83
2022/07/16 22:28:28;;;;;;;1.92;0.98;;;;;;;21.74;38.35;101566.66;9903712;29;20623;-83
2022/07/16 22:33:30;;;;;;;3.33;1.13;;;;;;;21.92;38.09;101562.47;9888863;29;20275;-83
2022/07/16 22:38:33;;;;;;;3.58;1.00;;;;;;;21.46;38.39;101568.38;9904407;29;20319;-86
2022/07/16 22:43:35;;;;;;;4.53;1.38;;;;;;;21.65;38.54;101559.38;9915334;29;20213;-85
2022/07/16 22:48:38;;;;;;;3.57;1.20;;;;;;;21.52;38.36;101561.31;9895120;30;20251;-83
2022/07/16 22:53:40;;;;;;;3.25;1.02;;;;;;;21.25;39.22;101571.22;9909476;30;20201;-84
2022/07/16 22:58:42;;;;;;;3.75;1.10;;;;;;;21.42;38.78;101570.22;9920363;29;20273;-84
2022/07/16 23:03:45;;;;;;;2.55;1.15;;;;;;;21.36;38.79;101577.31;9944080;29;20266;-85
2022/07/16 23:08:47;;;;;;;3.40;0.88;;;;;;;21.39;38.95;101577.47;9909941;29;20212;-85
2022/07/16 23:13:50;;;;;;;4.18;1.20;;;;;;;21.19;39.47;101576.22;9902401;30;20254;-86
2022/07/16 23:18:52;;;;;;;5.93;1.40;;;;;;;21.24;39.50;101583.75;9931474;29;20248;-85
2022/07/16 23:23:54;;;;;;;5.40;1.43;;;;;;;21.11;39.65;101591.34;9902038;30;20685;-86
2022/07/16 23:28:57;;;;;;;2.88;1.10;;;;;;;21.05;40.08;101587.00;9886999;29;20260;-84
2022/07/16 23:33:59;;;;;;;3.10;1.17;;;;;;;20.99;40.01;101593.25;9886711;30;20233;-86
2022/07/16 23:39:02;;;;;;;4.32;0.82;;;;;;;20.87;40.58;101596.81;9915974;30;20473;-83
2022/07/16 23:44:05;;;;;;;4.20;1.30;;;;;;;20.81;40.73;101601.00;9916008;30;20223;-83
2022/07/16 23:49:07;;;;;;;2.50;1.13;;;;;;;20.89;40.96;101605.81;9900527;30;20276;-84